Time;durP1;ratioP1;P1;durP2;ratioP2;P2;SDS_P1;SDS_P2;PMS_P1;PMS_P2;Temp;Humidity;BMP_temperature;BMP_pressure;BME280_temperature;BME280_humidity;BME280_pressure;Samples;Min_cycle;Max_cycle;Signal;HPM_P1;HPM_P2
2023/09/29 00:00:18;;;;;;;1.75;0.70;;;;;;;16.34;82.38;100469.56;5127112;28;20050;-63
2023/09/29 00:02:46;;;;;;;5.53;1.35;;;;;;;16.35;82.45;100480.00;5127014;28;20020;-63
2023/09/29 00:05:12;;;;;;;2.53;0.90;;;;;;;16.38;82.23;100447.59;5127100;28;20031;-63
2023/09/29 00:07:37;;;;;;;0.80;0.77;;;;;;;16.35;82.49;100435.47;5127127;28;20064;-64
2023/09/29 00:10:08;;;;;;;2.22;1.00;;;;;;;16.42;82.25;100443.97;5126983;28;20418;-64
2023/09/29 00:12:35;;;;;;;2.17;1.52;;;;;;;16.39;82.41;100430.13;5126956;28;20019;-63
2023/09/29 00:15:00;;;;;;;5.82;1.25;;;;;;;16.37;81.99;100440.66;5127080;28;20023;-64
2023/09/29 00:17:26;;;;;;;3.72;1.10;;;;;;;16.36;82.29;100436.28;5126897;28;20360;-63
2023/09/29 00:19:52;;;;;;;1.58;0.90;;;;;;;16.35;81.98;100417.13;5127160;28;20039;-63
2023/09/29 00:22:18;;;;;;;2.38;0.98;;;;;;;16.35;81.78;100396.16;5125759;28;20024;-63
2023/09/29 00:24:43;;;;;;;3.97;1.30;;;;;;;16.35;81.55;100380.44;5126938;28;20035;-63
2023/09/29 00:27:08;;;;;;;3.35;1.20;;;;;;;16.35;81.72;100382.19;5126773;28;20026;-64
2023/09/29 00:29:34;;;;;;;1.65;1.00;;;;;;;16.35;81.55;100379.56;5126468;28;20024;-64
2023/09/29 00:31:59;;;;;;;2.72;1.15;;;;;;;16.31;81.60;100385.84;5126941;28;20019;-64
2023/09/29 00:34:25;;;;;;;14.63;1.48;;;;;;;16.26;81.80;100380.75;5126403;28;20044;-63
2023/09/29 00:36:51;;;;;;;5.15;0.98;;;;;;;16.25;81.80;100407.84;5126669;28;20050;-63
2023/09/29 00:39:18;;;;;;;2.60;1.00;;;;;;;16.23;82.13;100439.31;5126794;28;20020;-63
2023/09/29 00:41:43;;;;;;;3.05;0.73;;;;;;;16.19;82.73;100426.38;5126493;28;20027;-63
2023/09/29 00:44:10;;;;;;;4.63;0.90;;;;;;;16.23;82.88;100439.31;5126380;28;20405;-63
2023/09/29 00:46:36;;;;;;;3.08;1.13;;;;;;;16.27;82.91;100444.44;5126418;28;20029;-63
2023/09/29 00:49:03;;;;;;;10.77;1.40;;;;;;;16.26;83.37;100448.84;5126475;28;20023;-63
2023/09/29 00:51:29;;;;;;;16.83;1.33;;;;;;;16.25;84.04;100448.88;5126324;28;20169;-64
2023/09/29 00:53:55;;;;;;;7.80;1.98;;;;;;;16.25;84.52;100449.75;5126500;28;20023;-64
2023/09/29 00:56:20;;;;;;;3.90;1.88;;;;;;;16.29;84.63;100440.91;5126299;28;20028;-63
2023/09/29 00:58:46;;;;;;;0.90;0.60;;;;;;;16.30;85.10;100441.72;5126169;28;20024;-64
2023/09/29 01:01:13;;;;;;;5.68;1.25;;;;;;;16.30;85.35;100421.66;5126151;28;20019;-63
2023/09/29 01:03:38;;;;;;;2.85;0.90;;;;;;;16.29;85.47;100411.22;5126333;28;20034;-63
2023/09/29 01:06:08;;;;;;;4.55;1.33;;;;;;;16.30;85.16;100399.81;5126143;28;20020;-64
2023/09/29 01:08:34;;;;;;;5.95;1.45;;;;;;;16.33;85.17;100411.06;5126420;28;20024;-64
2023/09/29 01:10:59;;;;;;;4.35;1.33;;;;;;;16.33;85.49;100413.69;5125881;28;20028;-63
2023/09/29 01:13:24;;;;;;;2.92;0.80;;;;;;;16.37;85.57;100410.97;5126027;28;20015;-63
2023/09/29 01:15:50;;;;;;;8.55;1.25;;;;;;;16.39;85.36;100415.25;5125866;28;20036;-63
2023/09/29 01:18:16;;;;;;;2.88;1.40;;;;;;;16.38;85.14;100407.44;5125803;28;20030;-63
2023/09/29 01:20:43;;;;;;;4.65;1.38;;;;;;;16.39;85.68;100415.25;5125745;28;20016;-61
2023/09/29 01:23:09;;;;;;;5.50;1.17;;;;;;;16.38;85.88;100408.28;5125774;28;20058;-64
2023/09/29 01:25:36;;;;;;;4.35;1.52;;;;;;;16.38;85.80;100410.03;5125868;28;20053;-64
2023/09/29 01:28:07;;;;;;;2.03;0.70;;;;;;;16.39;86.04;100403.91;5125660;28;20023;-63
2023/09/29 01:30:33;;;;;;;3.42;1.38;;;;;;;16.38;85.99;100391.72;5125856;28;20023;-64
2023/09/29 01:32:59;;;;;;;3.03;1.35;;;;;;;16.37;85.48;100369.03;5125197;28;20055;-63
2023/09/29 01:35:24;;;;;;;8.82;1.55;;;;;;;16.30;85.88;100364.00;5125911;28;20034;-63
2023/09/29 01:37:51;;;;;;;2.70;1.35;;;;;;;16.27;85.93;100365.88;5125643;28;20437;-63
2023/09/29 01:40:17;;;;;;;4.55;1.55;;;;;;;16.26;85.39;100383.38;5125737;28;20105;-63
2023/09/29 01:42:44;;;;;;;3.00;0.95;;;;;;;16.26;85.52;100385.13;5125511;28;20043;-64
2023/09/29 01:45:14;;;;;;;5.43;1.52;;;;;;;16.22;85.44;100379.13;5125488;28;20048;-63
2023/09/29 01:47:42;;;;;;;3.00;0.93;;;;;;;16.20;85.67;100373.06;5125621;28;20019;-64
2023/09/29 01:50:08;;;;;;;1.73;0.80;;;;;;;16.14;85.47;100368.91;5125697;28;20042;-64
2023/09/29 01:52:34;;;;;;;6.03;1.08;;;;;;;16.08;85.53;100380.44;5125476;28;20031;-64
2023/09/29 01:55:03;;;;;;;4.82;1.60;;;;;;;16.04;86.03;100386.66;5125561;28;20028;-65
2023/09/29 01:57:28;;;;;;;5.30;1.13;;;;;;;15.97;86.11;100385.13;5125541;28;20015;-64
2023/09/29 01:59:54;;;;;;;3.10;1.23;;;;;;;15.90;85.85;100373.09;5125268;28;20042;-63
2023/09/29 02:02:19;;;;;;;3.72;1.08;;;;;;;15.90;86.34;100380.97;5125040;28;20081;-63
2023/09/29 02:04:47;;;;;;;3.17;1.55;;;;;;;15.95;86.33;100376.44;5125237;28;20027;-63
2023/09/29 02:07:12;;;;;;;3.40;0.95;;;;;;;15.97;86.48;100377.28;5125352;28;20032;-63
2023/09/29 02:09:38;;;;;;;10.90;2.00;;;;;;;15.97;86.67;100382.50;5125249;28;20102;-63
2023/09/29 02:12:03;;;;;;;3.92;1.05;;;;;;;15.98;86.23;100395.56;5125233;28;20020;-63
2023/09/29 02:14:29;;;;;;;5.45;1.23;;;;;;;15.99;86.40;100385.94;5125105;28;20030;-62
2023/09/29 02:16:55;;;;;;;11.80;2.10;;;;;;;15.98;86.52;100376.38;5125260;28;20357;-63
2023/09/29 02:19:21;;;;;;;2.67;1.05;;;;;;;16.05;86.30;100385.78;5125240;28;20050;-63
2023/09/29 02:21:46;;;;;;;3.05;1.83;;;;;;;15.97;86.56;100370.28;5125085;28;20443;-63
2023/09/29 02:24:12;;;;;;;3.28;0.95;;;;;;;16.02;86.83;100375.41;5125120;28;20035;-63
2023/09/29 02:26:38;;;;;;;5.63;1.42;;;;;;;15.99;86.87;100370.22;5125289;28;20035;-63
2023/09/29 02:29:04;;;;;;;3.60;1.55;;;;;;;15.95;87.00;100353.75;5125327;28;20103;-64
2023/09/29 02:31:30;;;;;;;3.97;1.25;;;;;;;15.98;86.90;100356.31;5124945;28;20075;-63
2023/09/29 02:33:55;;;;;;;5.85;1.45;;;;;;;15.98;86.83;100335.34;5125032;28;20035;-64
2023/09/29 02:36:20;;;;;;;3.10;1.17;;;;;;;15.96;87.20;100333.66;5125074;28;20472;-63
2023/09/29 02:38:47;;;;;;;6.43;1.50;;;;;;;15.95;87.28;100337.19;5125007;28;20027;-64
2023/09/29 02:41:12;;;;;;;7.60;1.27;;;;;;;15.95;87.39;100324.94;5124774;28;20045;-63
2023/09/29 02:43:38;;;;;;;8.57;1.65;;;;;;;15.98;87.17;100331.88;5124626;28;20061;-64
2023/09/29 02:46:03;;;;;;;3.05;1.20;;;;;;;16.02;87.63;100336.13;5127748;28;20023;-63
2023/09/29 02:48:30;;;;;;;2.85;0.93;;;;;;;16.03;87.32;100334.34;5128715;28;20039;-64
2023/09/29 02:50:55;;;;;;;4.90;1.30;;;;;;;16.02;87.78;100323.03;5128606;28;20091;-64
2023/09/29 02:53:21;;;;;;;2.83;1.20;;;;;;;16.04;87.11;100326.44;5128821;28;20093;-64
2023/09/29 02:55:47;;;;;;;9.02;1.20;;;;;;;16.00;87.77;100340.53;5128581;28;20020;-64
2023/09/29 02:58:13;;;;;;;4.40;1.45;;;;;;;15.95;87.89;100340.66;5128806;28;20019;-63
2023/09/29 03:00:41;;;;;;;5.65;1.83;;;;;;;15.96;87.63;100344.13;5128073;28;20076;-63
2023/09/29 03:03:09;;;;;;;3.83;1.25;;;;;;;15.94;87.96;100343.34;5128384;28;20026;-63
2023/09/29 03:05:35;;;;;;;3.80;1.40;;;;;;;15.91;87.77;100332.97;5128889;28;20032;-63
2023/09/29 03:08:01;;;;;;;6.95;1.73;;;;;;;15.89;88.47;100347.84;5128388;28;20046;-63
2023/09/29 03:10:29;;;;;;;4.60;1.17;;;;;;;15.90;88.59;100353.03;5128336;28;20020;-63
2023/09/29 03:12:58;;;;;;;2.67;1.17;;;;;;;15.91;88.62;100338.19;5127953;28;20020;-63
2023/09/29 03:15:24;;;;;;;4.20;1.45;;;;;;;15.89;88.17;100338.25;5128095;28;20083;-63
2023/09/29 03:17:50;;;;;;;4.25;1.52;;;;;;;15.89;88.60;100345.22;5128202;28;20031;-63
2023/09/29 03:20:16;;;;;;;6.03;1.55;;;;;;;15.92;88.51;100343.38;5128106;28;20391;-64
2023/09/29 03:22:44;;;;;;;8.68;1.60;;;;;;;15.90;89.15;100344.31;5127992;28;20050;-64
2023/09/29 03:25:09;;;;;;;5.88;1.98;;;;;;;15.90;89.36;100339.09;5127887;28;20027;-63
2023/09/29 03:27:35;;;;;;;3.40;1.13;;;;;;;15.92;89.57;100345.13;5128226;28;20028;-64
2023/09/29 03:30:04;;;;;;;2.20;1.05;;;;;;;15.92;89.78;100343.38;5109678;28;20021;-63
2023/09/29 03:32:30;;;;;;;7.05;1.75;;;;;;;15.94;89.67;100331.06;5127642;28;20043;-63
2023/09/29 03:34:55;;;;;;;3.33;1.20;;;;;;;15.97;89.56;100336.25;5127754;28;20039;-63
2023/09/29 03:37:21;;;;;;;13.82;1.40;;;;;;;15.99;89.23;100336.19;5109531;28;20118;-64
2023/09/29 03:39:49;;;;;;;5.03;2.00;;;;;;;16.02;89.30;100322.16;5127815;28;20055;-63
2023/09/29 03:42:20;;;;;;;3.25;1.40;;;;;;;16.05;89.25;100288.88;5127557;28;20271;-63
2023/09/29 03:44:45;;;;;;;3.97;1.67;;;;;;;16.09;88.95;100290.50;5127466;28;20102;-64
2023/09/29 03:47:12;;;;;;;5.03;1.88;;;;;;;16.07;88.52;100279.19;5127529;28;20046;-64
2023/09/29 03:49:38;;;;;;;3.63;1.05;;;;;;;16.07;88.15;100273.97;5127451;28;20042;-63
2023/09/29 03:52:06;;;;;;;4.47;1.98;;;;;;;16.02;88.07;100265.44;5127566;28;20464;-63
2023/09/29 03:54:33;;;;;;;3.92;1.42;;;;;;;15.96;88.06;100274.28;5127485;28;20083;-63
2023/09/29 03:56:58;;;;;;;6.95;1.33;;;;;;;15.90;88.31;100281.47;5127244;28;20047;-63
2023/09/29 03:59:24;;;;;;;3.10;1.45;;;;;;;15.88;88.18;100273.69;5127258;28;20028;-63
2023/09/29 04:01:50;;;;;;;1.92;1.30;;;;;;;15.83;88.36;100278.25;5127296;28;20469;-63
2023/09/29 04:04:16;;;;;;;5.47;1.85;;;;;;;15.80;88.24;100273.94;5127364;28;20047;-63
2023/09/29 04:06:41;;;;;;;3.45;1.58;;;;;;;15.80;88.51;100275.72;5127482;28;20029;-63
2023/09/29 04:09:08;;;;;;;6.95;1.95;;;;;;;15.79;88.60;100274.00;5127165;28;20456;-63
2023/09/29 04:11:33;;;;;;;4.60;1.77;;;;;;;15.77;88.25;100271.41;5127264;28;20033;-63
2023/09/29 04:13:58;;;;;;;6.72;1.90;;;;;;;15.79;88.00;100269.63;5127209;28;20066;-68
2023/09/29 04:16:24;;;;;;;4.53;1.77;;;;;;;15.76;88.38;100274.09;5126969;28;20132;-64
2023/09/29 04:18:49;;;;;;;9.32;1.50;;;;;;;15.75;88.44;100270.59;5127049;28;20019;-64
2023/09/29 04:21:15;;;;;;;7.00;2.22;;;;;;;15.73;88.43;100275.06;5126693;28;20107;-64
2023/09/29 04:23:44;;;;;;;3.40;1.60;;;;;;;15.73;88.52;100278.50;5126847;28;20422;-63
2023/09/29 04:26:16;;;;;;;4.20;1.30;;;;;;;15.74;88.20;100274.13;5126797;28;20468;-64
2023/09/29 04:28:42;;;;;;;4.57;1.25;;;;;;;15.67;88.57;100278.72;5126978;28;20019;-63
2023/09/29 04:31:07;;;;;;;8.65;1.42;;;;;;;15.76;88.74;100295.03;5126546;28;20031;-63
2023/09/29 04:33:32;;;;;;;6.47;1.73;;;;;;;15.79;88.58;100290.56;5126457;28;20114;-63
2023/09/29 04:35:58;;;;;;;4.38;1.73;;;;;;;15.79;88.59;100293.19;5126789;28;20055;-64
2023/09/29 04:38:23;;;;;;;2.95;1.42;;;;;;;15.83;88.56;100286.09;5126860;28;20024;-62
2023/09/29 04:40:48;;;;;;;5.55;1.48;;;;;;;15.89;88.45;100290.25;5126579;28;20023;-61
2023/09/29 04:43:14;;;;;;;5.13;1.65;;;;;;;15.91;88.36;100294.53;5126349;28;20028;-64
2023/09/29 04:45:40;;;;;;;6.28;2.08;;;;;;;15.96;88.42;100291.75;5126167;28;20019;-66
2023/09/29 04:48:05;;;;;;;8.95;2.75;;;;;;;15.98;88.34;100289.97;5126219;28;20024;-65
2023/09/29 04:50:31;;;;;;;6.32;2.58;;;;;;;15.98;88.20;100285.63;5126064;28;20020;-64
2023/09/29 04:52:57;;;;;;;7.78;2.00;;;;;;;15.98;88.32;100279.50;5126167;28;20019;-64
2023/09/29 04:55:22;;;;;;;5.07;2.00;;;;;;;16.00;88.14;100282.94;5126539;28;20369;-63
2023/09/29 04:57:47;;;;;;;8.82;2.67;;;;;;;16.04;88.00;100274.06;5126185;28;20027;-64
2023/09/29 05:00:13;;;;;;;4.05;1.55;;;;;;;16.04;87.79;100265.38;5126058;28;20026;-64
2023/09/29 05:02:38;;;;;;;10.32;1.92;;;;;;;16.13;87.77;100266.81;5126187;28;20419;-65
2023/09/29 05:05:04;;;;;;;7.43;1.95;;;;;;;16.15;87.46;100273.69;5126352;28;20038;-64
2023/09/29 05:07:30;;;;;;;7.93;2.47;;;;;;;16.16;87.76;100258.84;5125633;28;20034;-65
2023/09/29 05:09:56;;;;;;;6.15;2.03;;;;;;;16.16;87.61;100261.47;5126136;28;20015;-63
2023/09/29 05:12:22;;;;;;;14.40;2.38;;;;;;;16.19;87.68;100270.09;5125982;28;20039;-63
2023/09/29 05:14:47;;;;;;;4.28;1.85;;;;;;;16.18;88.01;100262.28;5126312;28;20031;-63
2023/09/29 05:17:13;;;;;;;3.92;1.50;;;;;;;16.19;88.00;100264.84;5126232;28;20015;-64
2023/09/29 05:19:38;;;;;;;16.23;2.03;;;;;;;16.23;87.67;100255.09;5125899;28;20023;-64
2023/09/29 05:22:03;;;;;;;4.35;1.55;;;;;;;16.18;88.29;100262.28;5125916;28;20023;-63
2023/09/29 05:24:29;;;;;;;4.43;1.75;;;;;;;16.17;88.13;100250.06;5125815;28;20077;-63
2023/09/29 05:26:54;;;;;;;5.22;2.10;;;;;;;16.12;88.31;100259.88;5125819;28;20023;-63
2023/09/29 05:29:20;;;;;;;4.75;1.77;;;;;;;16.03;89.06;100276.75;5125742;28;20024;-61
2023/09/29 05:31:45;;;;;;;7.38;2.00;;;;;;;15.99;89.38;100268.13;5125771;28;20016;-63
2023/09/29 05:34:10;;;;;;;4.18;1.33;;;;;;;15.90;90.31;100273.63;5125409;28;20097;-62
2023/09/29 05:36:36;;;;;;;3.83;1.85;;;;;;;15.88;90.77;100267.63;5125507;28;20588;-63
2023/09/29 05:39:01;;;;;;;5.47;1.75;;;;;;;15.90;91.01;100264.03;5125627;28;20015;-63
2023/09/29 05:41:26;;;;;;;4.65;1.88;;;;;;;15.85;91.54;100264.19;5124856;28;20103;-63
2023/09/29 05:43:53;;;;;;;7.22;2.58;;;;;;;15.82;91.62;100259.06;5125276;28;20027;-62
2023/09/29 05:46:18;;;;;;;5.90;2.38;;;;;;;15.88;92.02;100251.91;5125248;28;20020;-64
2023/09/29 05:48:44;;;;;;;11.98;2.35;;;;;;;15.91;91.97;100257.03;5125696;28;20432;-62
2023/09/29 05:51:09;;;;;;;4.93;2.05;;;;;;;15.87;92.44;100258.91;5125944;28;20019;-63
2023/09/29 05:53:34;;;;;;;8.05;2.75;;;;;;;15.90;92.36;100271.00;5125347;28;20024;-62
2023/09/29 05:56:10;;;;;;;5.90;1.73;;;;;;;15.89;92.72;100270.19;5125706;28;20024;-63
2023/09/29 05:58:38;;;;;;;18.70;2.53;;;;;;;15.93;92.70;100273.53;5125886;28;20019;-62
2023/09/29 06:01:12;;;;;;;6.43;1.73;;;;;;;15.93;92.27;100265.69;5125467;28;20467;-62
2023/09/29 06:03:38;;;;;;;12.60;1.85;;;;;;;15.92;92.34;100259.59;5125122;28;20448;-63
2023/09/29 06:06:04;;;;;;;4.35;1.73;;;;;;;15.92;92.34;100270.06;5125527;28;20041;-63
2023/09/29 06:08:29;;;;;;;5.55;1.50;;;;;;;15.89;92.02;100267.56;5125575;28;20047;-63
2023/09/29 06:10:55;;;;;;;9.27;2.65;;;;;;;15.96;91.61;100249.88;5125746;28;20376;-63
2023/09/29 06:13:20;;;;;;;6.72;2.03;;;;;;;15.96;91.77;100258.59;5125287;28;20019;-63
2023/09/29 06:15:46;;;;;;;4.47;1.88;;;;;;;15.91;91.47;100259.66;5125355;28;20200;-63
2023/09/29 06:18:11;;;;;;;15.30;2.38;;;;;;;16.00;91.46;100267.22;5125358;28;20034;-62
2023/09/29 06:20:37;;;;;;;6.95;2.08;;;;;;;16.03;90.90;100266.25;5128979;28;20022;-63
2023/09/29 06:23:04;;;;;;;11.43;2.50;;;;;;;16.04;91.11;100262.75;5128149;28;20024;-62
2023/09/29 06:25:29;;;;;;;10.02;2.53;;;;;;;15.93;91.10;100235.13;5129710;28;20556;-64
2023/09/29 06:27:54;;;;;;;15.25;2.40;;;;;;;16.03;91.01;100256.66;5129523;28;20027;-63
2023/09/29 06:30:20;;;;;;;4.22;1.45;;;;;;;16.00;90.95;100246.28;5129386;28;20028;-62
2023/09/29 06:32:45;;;;;;;6.63;1.70;;;;;;;16.06;90.96;100248.69;5128836;28;20055;-63
2023/09/29 06:35:12;;;;;;;5.70;2.35;;;;;;;16.08;90.58;100256.50;5129460;28;20030;-62
2023/09/29 06:37:38;;;;;;;6.45;1.42;;;;;;;16.09;90.62;100266.06;5129228;28;20079;-63
2023/09/29 06:40:03;;;;;;;4.82;1.95;;;;;;;16.10;90.82;100258.16;5129424;28;20019;-62
2023/09/29 06:42:29;;;;;;;6.05;1.65;;;;;;;16.14;90.69;100256.28;5128944;28;20609;-63
2023/09/29 06:44:54;;;;;;;8.20;2.35;;;;;;;16.15;90.36;100276.31;5128891;28;20054;-62
2023/09/29 06:47:19;;;;;;;4.32;1.70;;;;;;;16.16;90.13;100266.72;5129280;28;20016;-64
2023/09/29 06:49:46;;;;;;;13.60;1.63;;;;;;;16.18;90.12;100257.03;5128883;28;20023;-63
2023/09/29 06:52:11;;;;;;;4.47;2.25;;;;;;;16.21;90.08;100270.88;5116663;22;20052;-66
2023/09/29 06:54:36;;;;;;;10.15;2.28;;;;;;;16.22;90.07;100283.06;5108476;28;20023;-66
2023/09/29 06:57:02;;;;;;;6.43;1.92;;;;;;;16.22;89.79;100269.13;5108283;28;20031;-66
2023/09/29 06:59:27;;;;;;;5.63;1.83;;;;;;;16.21;89.79;100267.41;5108661;28;20078;-65
2023/09/29 07:01:54;;;;;;;12.90;2.55;;;;;;;16.25;89.80;100270.75;5108339;28;20467;-65
2023/09/29 07:04:20;;;;;;;6.63;2.00;;;;;;;16.27;89.80;100268.97;5107999;28;20024;-65
2023/09/29 07:06:45;;;;;;;3.97;1.60;;;;;;;16.30;89.49;100263.59;5108214;28;20023;-66
2023/09/29 07:09:12;;;;;;;4.63;1.85;;;;;;;16.27;89.60;100269.81;5093262;22;20041;-63
2023/09/29 07:11:40;;;;;;;7.25;2.38;;;;;;;16.36;89.49;100284.34;5087882;28;20024;-63
2023/09/29 07:14:06;;;;;;;10.60;1.77;;;;;;;16.37;89.18;100278.22;5087691;28;20024;-63
2023/09/29 07:16:32;;;;;;;4.05;2.17;;;;;;;16.41;88.91;100265.84;5087519;28;20024;-64
2023/09/29 07:18:57;;;;;;;15.65;2.35;;;;;;;16.42;88.98;100263.19;5087814;28;20081;-63
2023/09/29 07:21:23;;;;;;;3.75;1.77;;;;;;;16.42;89.06;100262.34;5087839;28;20028;-64
2023/09/29 07:23:48;;;;;;;7.30;2.53;;;;;;;16.27;89.03;100238.38;5087657;28;20028;-64
2023/09/29 07:26:14;;;;;;;8.07;1.23;;;;;;;16.46;89.21;100256.06;5087802;28;20056;-63
2023/09/29 07:28:40;;;;;;;7.60;2.05;;;;;;;16.47;88.92;100256.00;5087756;28;20059;-64
2023/09/29 07:31:05;;;;;;;9.32;2.78;;;;;;;16.48;88.99;100243.78;5086754;28;20024;-64
2023/09/29 07:33:31;;;;;;;5.53;2.63;;;;;;;16.55;88.86;100253.13;5087727;28;20047;-63
2023/09/29 07:35:56;;;;;;;13.50;2.47;;;;;;;16.59;88.92;100259.97;5087583;28;20077;-63
2023/09/29 07:38:21;;;;;;;12.85;2.88;;;;;;;16.67;88.58;100258.81;5087370;28;20058;-64
2023/09/29 07:40:47;;;;;;;4.72;2.10;;;;;;;16.63;88.29;100246.75;5087333;28;20052;-62
2023/09/29 07:43:13;;;;;;;8.57;2.05;;;;;;;16.71;88.25;100263.03;5087366;28;20020;-62
2023/09/29 07:45:39;;;;;;;7.95;2.33;;;;;;;16.75;88.34;100262.03;5086894;28;20066;-62
2023/09/29 07:48:05;;;;;;;6.28;2.95;;;;;;;16.77;87.92;100262.84;5087386;28;20028;-62
2023/09/29 07:50:30;;;;;;;6.68;2.63;;;;;;;16.84;87.91;100252.97;5087404;28;20024;-63
2023/09/29 07:52:56;;;;;;;3.03;1.63;;;;;;;16.90;87.78;100241.41;5087288;28;20028;-64
2023/09/29 07:55:21;;;;;;;19.27;2.25;;;;;;;16.90;87.49;100247.47;5087090;28;20095;-64
2023/09/29 07:57:47;;;;;;;9.73;2.30;;;;;;;16.94;87.10;100251.72;5087039;28;20059;-63
2023/09/29 08:00:15;;;;;;;2.78;1.73;;;;;;;17.00;86.97;100245.38;5086939;28;20031;-63
2023/09/29 08:02:41;;;;;;;5.63;2.05;;;;;;;17.02;86.71;100254.03;5085834;28;20024;-63
2023/09/29 08:05:07;;;;;;;8.00;2.88;;;;;;;16.98;87.05;100247.22;5069148;28;20025;-63
2023/09/29 08:07:33;;;;;;;11.45;2.58;;;;;;;17.02;86.91;100259.28;5086916;28;20025;-63
2023/09/29 08:09:58;;;;;;;5.55;1.88;;;;;;;17.02;86.28;100261.91;5101758;28;20036;-62
2023/09/29 08:12:24;;;;;;;4.47;2.33;;;;;;;17.06;86.07;100254.78;5106949;28;20412;-62
2023/09/29 08:14:50;;;;;;;12.30;2.55;;;;;;;17.04;86.18;100260.09;5106921;28;20087;-63
2023/09/29 08:17:16;;;;;;;7.05;2.78;;;;;;;16.98;85.89;100261.16;5107205;28;20012;-63
2023/09/29 08:19:41;;;;;;;11.80;2.25;;;;;;;16.97;85.52;100258.59;5106767;28;20023;-62
2023/09/29 08:22:06;;;;;;;5.65;2.05;;;;;;;16.88;85.84;100259.81;5106900;28;20020;-62
2023/09/29 08:24:32;;;;;;;13.88;2.55;;;;;;;16.88;85.97;100266.81;5107031;28;20028;-62
2023/09/29 08:26:58;;;;;;;6.15;2.03;;;;;;;16.87;86.16;100262.50;5106649;28;20028;-62
2023/09/29 08:29:24;;;;;;;13.15;2.78;;;;;;;16.81;86.42;100267.03;5106868;28;20077;-63
2023/09/29 08:31:49;;;;;;;16.17;2.70;;;;;;;16.79;86.40;100250.50;5106471;28;20117;-62
2023/09/29 08:34:15;;;;;;;3.13;1.88;;;;;;;16.82;86.52;100255.63;5106791;28;20504;-62
2023/09/29 08:36:40;;;;;;;6.75;2.25;;;;;;;16.84;86.12;100261.69;5106695;28;20058;-62
2023/09/29 08:39:06;;;;;;;7.25;2.22;;;;;;;16.78;86.65;100256.69;5106750;28;20046;-64
2023/09/29 08:41:34;;;;;;;10.50;2.83;;;;;;;16.81;86.46;100253.94;5106376;28;20057;-63
2023/09/29 08:44:02;;;;;;;11.32;3.30;;;;;;;16.84;86.47;100240.72;5105692;28;20091;-63
2023/09/29 08:46:29;;;;;;;14.38;3.17;;;;;;;16.94;86.24;100242.97;5106271;28;20027;-64
2023/09/29 08:48:55;;;;;;;13.40;2.40;;;;;;;17.03;86.02;100247.03;5106441;28;20459;-63
2023/09/29 08:51:21;;;;;;;3.72;2.67;;;;;;;17.02;85.77;100237.44;5106441;28;20036;-62
2023/09/29 08:53:50;;;;;;;12.40;3.03;;;;;;;16.98;85.62;100250.69;5106340;28;20016;-63
2023/09/29 08:56:16;;;;;;;6.20;2.30;;;;;;;17.03;85.47;100237.38;5106223;28;20054;-62
2023/09/29 08:58:42;;;;;;;10.27;3.25;;;;;;;17.08;85.88;100230.25;5106240;28;20028;-63
2023/09/29 09:01:08;;;;;;;9.70;2.70;;;;;;;17.13;85.89;100216.06;5106211;28;20031;-63
2023/09/29 09:03:34;;;;;;;9.80;2.55;;;;;;;17.46;85.66;100229.63;5106320;28;20012;-63
2023/09/29 09:05:59;;;;;;;7.40;2.83;;;;;;;17.62;84.54;100220.28;5106204;28;20028;-63
2023/09/29 09:08:26;;;;;;;4.45;2.25;;;;;;;17.83;84.14;100229.03;5105809;28;20095;-62
2023/09/29 09:10:59;;;;;;;20.67;3.78;;;;;;;18.01;84.11;100224.78;5106139;28;20028;-62
2023/09/29 09:13:28;;;;;;;15.00;2.60;;;;;;;18.23;83.60;100223.88;5105876;28;20081;-63
2023/09/29 09:15:57;;;;;;;19.40;3.55;;;;;;;18.54;81.87;100219.91;5105625;28;20054;-63
2023/09/29 09:18:27;;;;;;;11.00;2.97;;;;;;;18.77;80.21;100235.56;5105706;28;20031;-63
2023/09/29 09:20:53;;;;;;;17.40;2.60;;;;;;;18.78;79.72;100238.13;5105697;28;20030;-64
2023/09/29 09:23:19;;;;;;;5.70;1.83;;;;;;;18.66;78.51;100231.63;5105760;28;20044;-63
2023/09/29 09:25:44;;;;;;;11.75;2.83;;;;;;;18.51;78.59;100233.19;5123882;22;20567;-63
2023/09/29 09:28:16;;;;;;;13.32;2.65;;;;;;;18.40;78.78;100235.44;5125893;28;20395;-63
2023/09/29 09:30:42;;;;;;;4.93;1.92;;;;;;;18.30;78.69;100233.22;5125436;28;20027;-63
2023/09/29 09:33:17;;;;;;;3.78;1.77;;;;;;;18.30;78.84;100213.97;5125846;28;20062;-63
2023/09/29 09:35:43;;;;;;;11.98;3.55;;;;;;;18.37;78.77;100220.66;5126152;28;20015;-63
2023/09/29 09:38:08;;;;;;;8.60;2.10;;;;;;;18.44;78.43;100216.84;5125781;28;20028;-63
2023/09/29 09:43:10;;;;;;;16.88;3.05;;;;;;;18.62;76.79;100216.94;5100786;28;20044;-60
2023/09/29 09:45:40;;;;;;;8.90;2.60;;;;;;;18.54;75.79;100211.16;5105356;28;20020;-61
2023/09/29 09:48:10;;;;;;;4.47;2.03;;;;;;;18.48;75.37;100201.78;5105375;28;20024;-60
2023/09/29 09:50:36;;;;;;;15.25;2.53;;;;;;;18.40;75.37;100217.06;5105311;28;20035;-61
2023/09/29 09:53:04;;;;;;;4.95;2.00;;;;;;;18.26;75.57;100208.00;5105264;28;20415;-61
2023/09/29 09:55:39;;;;;;;7.57;1.83;;;;;;;18.22;76.23;100222.19;5105212;28;20016;-60
2023/09/29 09:58:12;;;;;;;7.68;1.92;;;;;;;18.14;75.97;100216.41;5105346;28;20031;-60
2023/09/29 10:00:45;;;;;;;3.95;1.92;;;;;;;18.06;76.31;100214.09;5105085;28;20028;-61
2023/09/29 10:03:12;;;;;;;8.38;2.22;;;;;;;18.05;76.41;100205.34;5105143;28;20096;-61
2023/09/29 10:05:46;;;;;;;4.78;2.25;;;;;;;18.06;76.60;100203.59;5105299;28;20055;-61
2023/09/29 10:08:29;;;;;;;7.03;1.98;;;;;;;18.14;77.01;100196.25;5105353;28;20035;-61
2023/09/29 10:11:14;;;;;;;6.22;2.08;;;;;;;18.15;76.42;100195.31;5105462;28;20027;-61
2023/09/29 10:13:44;;;;;;;4.95;2.38;;;;;;;18.17;76.32;100187.38;5105335;28;20132;-61
2023/09/29 10:16:22;;;;;;;9.73;2.15;;;;;;;18.27;76.62;100188.69;5104928;28;20020;-61
2023/09/29 10:19:00;;;;;;;6.50;2.63;;;;;;;18.37;76.49;100193.53;5105232;28;20024;-61
2023/09/29 10:21:39;;;;;;;5.68;2.28;;;;;;;18.45;76.47;100197.50;5105155;28;20044;-60
2023/09/29 10:24:05;;;;;;;4.85;2.53;;;;;;;18.42;75.72;100175.75;5105135;28;20098;-61
2023/09/29 10:26:42;;;;;;;7.53;2.10;;;;;;;18.51;75.15;100198.16;5105414;28;20020;-60
2023/09/29 10:29:09;;;;;;;7.05;2.35;;;;;;;18.46;74.97;100177.34;5105003;28;20056;-60
2023/09/29 10:31:35;;;;;;;6.65;2.10;;;;;;;18.53;74.85;100189.28;5105108;28;20020;-60
2023/09/29 10:34:01;;;;;;;6.32;1.95;;;;;;;18.55;74.44;100186.56;5105015;28;20020;-60
2023/09/29 10:36:28;;;;;;;4.38;2.72;;;;;;;18.54;73.95;100184.88;5086809;28;20050;-61
2023/09/29 10:38:57;;;;;;;9.15;2.13;;;;;;;18.44;73.54;100197.59;5104813;28;20028;-60
2023/09/29 10:41:23;;;;;;;7.05;3.03;;;;;;;18.30;73.62;100193.81;5104511;28;20523;-58
2023/09/29 10:43:49;;;;;;;12.88;2.33;;;;;;;18.20;74.18;100189.88;5104910;28;20028;-61
2023/09/29 10:46:16;;;;;;;3.33;2.03;;;;;;;18.09;74.33;100192.94;5104878;28;20024;-61
2023/09/29 10:48:52;;;;;;;9.00;2.13;;;;;;;17.93;74.94;100190.13;5104914;28;20043;-60
2023/09/29 10:51:31;;;;;;;18.77;2.60;;;;;;;17.91;75.23;100192.81;5104978;28;20024;-61
2023/09/29 10:54:02;;;;;;;5.75;2.28;;;;;;;17.93;75.67;100201.47;5104821;28;20028;-61
2023/09/29 10:56:28;;;;;;;6.60;2.33;;;;;;;17.86;75.89;100196.56;5104744;28;20083;-61
2023/09/29 10:58:55;;;;;;;5.13;2.85;;;;;;;17.83;75.89;100206.28;5105022;28;20035;-61
2023/09/29 11:01:32;;;;;;;2.38;1.67;;;;;;;17.78;76.29;100195.09;5104425;28;20024;-60
2023/09/29 11:03:58;;;;;;;4.78;1.98;;;;;;;17.79;76.07;100190.72;5104740;28;20020;-61
2023/09/29 11:06:24;;;;;;;6.07;1.88;;;;;;;17.75;76.27;100189.16;5106395;28;20066;-59
2023/09/29 11:08:55;;;;;;;6.65;2.25;;;;;;;17.72;76.62;100187.47;5108192;28;20024;-60
2023/09/29 11:11:21;;;;;;;;;;;;;;;17.83;76.30;100192.28;5108652;28;20023;-60
2023/09/29 11:13:59;;;;;;;4.45;2.10;;;;;;;17.78;76.62;100186.38;5108082;28;19994;-60
2023/09/29 11:16:28;;;;;;;4.53;2.00;;;;;;;17.77;76.64;100190.78;5107838;28;20028;-60
2023/09/29 11:18:57;;;;;;;2.30;1.27;;;;;;;17.80;76.80;100185.41;5108026;28;20039;-60
2023/09/29 11:21:33;;;;;;;5.88;2.22;;;;;;;17.80;77.18;100182.78;5108274;28;20180;-63
2023/09/29 11:24:07;;;;;;;4.35;2.28;;;;;;;17.85;76.97;100166.81;5107973;28;20028;-60